sensor_id;sensor_type;location;lat;lon;timestamp;pressure;altitude;pressure_sealevel;temperature;humidity
45071;BME280;30836;48.906;9.140;2023-05-10T00:00:54;980.06;;;19.05;58.44
45071;BME280;30836;48.906;9.140;2023-05-10T00:01:55;979.96;;;18.94;58.78
45071;BME280;30836;48.906;9.140;2023-05-10T00:02:55;980.04;;;18.84;58.33
45071;BME280;30836;48.906;9.140;2023-05-10T00:03:55;980.02;;;18.80;58.37
45071;BME280;30836;48.906;9.140;2023-05-10T00:04:56;980.04;;;18.80;58.24
45071;BME280;30836;48.906;9.140;2023-05-10T00:05:56;980.00;;;18.87;57.92
45071;BME280;30836;48.906;9.140;2023-05-10T00:06:57;980.00;;;18.88;58.34
45071;BME280;30836;48.906;9.140;2023-05-10T00:07:57;980.02;;;18.81;58.10
45071;BME280;30836;48.906;9.140;2023-05-10T00:08:58;980.00;;;18.66;58.76
45071;BME280;30836;48.906;9.140;2023-05-10T00:09:58;979.96;;;18.54;58.81
45071;BME280;30836;48.906;9.140;2023-05-10T00:10:58;980.00;;;18.53;58.90
45071;BME280;30836;48.906;9.140;2023-05-10T00:11:59;980.00;;;18.56;58.60
45071;BME280;30836;48.906;9.140;2023-05-10T00:12:59;979.98;;;18.58;58.68
45071;BME280;30836;48.906;9.140;2023-05-10T00:14:00;980.04;;;18.64;58.26
45071;BME280;30836;48.906;9.140;2023-05-10T00:15:00;980.02;;;18.71;58.32
45071;BME280;30836;48.906;9.140;2023-05-10T00:16:01;980.00;;;18.72;58.31
45071;BME280;30836;48.906;9.140;2023-05-10T00:17:01;980.06;;;18.71;58.04
45071;BME280;30836;48.906;9.140;2023-05-10T00:18:02;980.02;;;18.63;58.67
45071;BME280;30836;48.906;9.140;2023-05-10T00:19:02;979.98;;;18.58;58.44
45071;BME280;30836;48.906;9.140;2023-05-10T00:20:03;979.98;;;18.54;58.82
45071;BME280;30836;48.906;9.140;2023-05-10T00:21:04;979.98;;;18.48;58.59
45071;BME280;30836;48.906;9.140;2023-05-10T00:22:04;979.96;;;18.44;58.97
45071;BME280;30836;48.906;9.140;2023-05-10T00:23:05;979.94;;;18.38;59.08
45071;BME280;30836;48.906;9.140;2023-05-10T00:24:05;979.96;;;18.38;58.96
45071;BME280;30836;48.906;9.140;2023-05-10T00:25:06;980.00;;;18.43;58.52
45071;BME280;30836;48.906;9.140;2023-05-10T00:26:07;980.00;;;18.46;58.60
45071;BME280;30836;48.906;9.140;2023-05-10T00:27:08;980.02;;;18.48;58.56
45071;BME280;30836;48.906;9.140;2023-05-10T00:28:08;979.98;;;18.47;58.55
45071;BME280;30836;48.906;9.140;2023-05-10T00:29:08;979.96;;;18.46;58.83
45071;BME280;30836;48.906;9.140;2023-05-10T00:30:09;980.00;;;18.47;58.77
45071;BME280;30836;48.906;9.140;2023-05-10T00:31:10;979.98;;;18.46;58.72
45071;BME280;30836;48.906;9.140;2023-05-10T00:32:10;979.98;;;18.44;58.96
45071;BME280;30836;48.906;9.140;2023-05-10T00:33:10;980.04;;;18.43;58.92
45071;BME280;30836;48.906;9.140;2023-05-10T00:34:11;980.04;;;18.42;58.89
45071;BME280;30836;48.906;9.140;2023-05-10T00:35:11;980.02;;;18.35;59.52
45071;BME280;30836;48.906;9.140;2023-05-10T00:36:12;979.98;;;18.32;59.19
45071;BME280;30836;48.906;9.140;2023-05-10T00:37:12;980.02;;;18.38;58.95
45071;BME280;30836;48.906;9.140;2023-05-10T00:38:13;980.00;;;18.41;58.78
45071;BME280;30836;48.906;9.140;2023-05-10T00:39:13;979.96;;;18.40;58.97
45071;BME280;30836;48.906;9.140;2023-05-10T00:40:13;979.98;;;18.37;59.05
45071;BME280;30836;48.906;9.140;2023-05-10T00:41:14;980.00;;;18.31;59.51
45071;BME280;30836;48.906;9.140;2023-05-10T00:42:14;980.02;;;18.27;59.42
45071;BME280;30836;48.906;9.140;2023-05-10T00:43:15;979.98;;;18.31;59.08
45071;BME280;30836;48.906;9.140;2023-05-10T00:44:15;979.98;;;18.31;59.56
45071;BME280;30836;48.906;9.140;2023-05-10T00:45:16;980.04;;;18.28;59.23
45071;BME280;30836;48.906;9.140;2023-05-10T00:46:17;980.00;;;18.34;59.06
45071;BME280;30836;48.906;9.140;2023-05-10T00:47:17;980.02;;;18.40;59.08
45071;BME280;30836;48.906;9.140;2023-05-10T00:48:18;980.00;;;18.46;58.79
45071;BME280;30836;48.906;9.140;2023-05-10T00:49:19;980.00;;;18.53;58.65
45071;BME280;30836;48.906;9.140;2023-05-10T00:50:20;980.02;;;18.59;58.49
45071;BME280;30836;48.906;9.140;2023-05-10T00:51:21;980.08;;;18.59;58.96
45071;BME280;30836;48.906;9.140;2023-05-10T00:52:22;980.06;;;18.54;59.02
45071;BME280;30836;48.906;9.140;2023-05-10T00:53:23;980.08;;;18.52;59.01
45071;BME280;30836;48.906;9.140;2023-05-10T00:54:24;980.10;;;18.55;58.56
45071;BME280;30836;48.906;9.140;2023-05-10T00:55:25;980.14;;;18.63;58.53
45071;BME280;30836;48.906;9.140;2023-05-10T00:56:26;980.16;;;18.67;58.82
45071;BME280;30836;48.906;9.140;2023-05-10T00:57:27;980.16;;;18.69;58.66
45071;BME280;30836;48.906;9.140;2023-05-10T00:58:27;980.18;;;18.76;58.21
45071;BME280;30836;48.906;9.140;2023-05-10T00:59:28;980.27;;;18.76;58.44
45071;BME280;30836;48.906;9.140;2023-05-10T01:00:29;980.31;;;18.69;58.77
45071;BME280;30836;48.906;9.140;2023-05-10T01:01:30;980.29;;;18.59;59.30
45071;BME280;30836;48.906;9.140;2023-05-10T01:02:31;980.29;;;18.49;59.34
45071;BME280;30836;48.906;9.140;2023-05-10T01:03:32;980.31;;;18.45;59.51
45071;BME280;30836;48.906;9.140;2023-05-10T01:04:32;980.33;;;18.39;59.72
45071;BME280;30836;48.906;9.140;2023-05-10T01:05:33;980.29;;;18.34;59.92
45071;BME280;30836;48.906;9.140;2023-05-10T01:06:33;980.31;;;18.33;59.66
45071;BME280;30836;48.906;9.140;2023-05-10T01:07:34;980.37;;;18.37;59.53
45071;BME280;30836;48.906;9.140;2023-05-10T01:08:34;980.27;;;18.40;59.54
45071;BME280;30836;48.906;9.140;2023-05-10T01:09:34;980.27;;;18.42;59.37
45071;BME280;30836;48.906;9.140;2023-05-10T01:10:35;980.27;;;18.44;59.18
45071;BME280;30836;48.906;9.140;2023-05-10T01:11:36;980.25;;;18.42;59.35
45071;BME280;30836;48.906;9.140;2023-05-10T01:12:39;980.29;;;18.40;59.28
45071;BME280;30836;48.906;9.140;2023-05-10T01:13:43;980.33;;;18.47;59.00
45071;BME280;30836;48.906;9.140;2023-05-10T01:14:47;980.31;;;18.55;58.39
45071;BME280;30836;48.906;9.140;2023-05-10T01:15:48;980.35;;;18.57;58.09
45071;BME280;30836;48.906;9.140;2023-05-10T01:16:49;980.35;;;18.58;57.90
45071;BME280;30836;48.906;9.140;2023-05-10T01:17:50;980.35;;;18.61;57.68
45071;BME280;30836;48.906;9.140;2023-05-10T01:18:52;980.31;;;18.71;57.51
45071;BME280;30836;48.906;9.140;2023-05-10T01:19:52;980.33;;;18.79;57.39
45071;BME280;30836;48.906;9.140;2023-05-10T01:30:26;980.35;;;19.43;55.19
45071;BME280;30836;48.906;9.140;2023-05-10T01:31:39;980.35;;;19.48;55.29
45071;BME280;30836;48.906;9.140;2023-05-10T01:33:59;980.33;;;19.27;55.91
45071;BME280;30836;48.906;9.140;2023-05-10T01:35:03;980.29;;;19.21;56.04
45071;BME280;30836;48.906;9.140;2023-05-10T01:37:18;980.33;;;19.17;55.79
45071;BME280;30836;48.906;9.140;2023-05-10T01:43:06;980.41;;;18.80;56.80
45071;BME280;30836;48.906;9.140;2023-05-10T01:46:35;980.37;;;18.91;56.80
45071;BME280;30836;48.906;9.140;2023-05-10T01:47:42;980.39;;;18.88;56.78
45071;BME280;30836;48.906;9.140;2023-05-10T01:48:47;980.37;;;18.87;56.67
45071;BME280;30836;48.906;9.140;2023-05-10T01:49:52;980.35;;;18.90;56.45
45071;BME280;30836;48.906;9.140;2023-05-10T01:50:55;980.35;;;19.02;55.87
45071;BME280;30836;48.906;9.140;2023-05-10T01:51:59;980.35;;;19.18;55.57
45071;BME280;30836;48.906;9.140;2023-05-10T01:53:06;980.37;;;19.24;55.70
45071;BME280;30836;48.906;9.140;2023-05-10T01:53:18;980.35;;;19.19;55.77
45071;BME280;30836;48.906;9.140;2023-05-10T01:54:21;980.31;;;19.21;55.79
45071;BME280;30836;48.906;9.140;2023-05-10T01:55:24;980.31;;;19.25;55.82
45071;BME280;30836;48.906;9.140;2023-05-10T01:56:29;980.37;;;19.39;55.16
45071;BME280;30836;48.906;9.140;2023-05-10T01:57:32;980.35;;;19.51;55.17
45071;BME280;30836;48.906;9.140;2023-05-10T01:58:35;980.37;;;19.56;54.90
45071;BME280;30836;48.906;9.140;2023-05-10T01:59:36;980.39;;;19.61;54.87
45071;BME280;30836;48.906;9.140;2023-05-10T02:00:39;980.39;;;19.53;55.61
45071;BME280;30836;48.906;9.140;2023-05-10T02:01:43;980.45;;;19.40;55.63
45071;BME280;30836;48.906;9.140;2023-05-10T02:02:46;980.39;;;19.42;55.23
45071;BME280;30836;48.906;9.140;2023-05-10T02:03:50;980.45;;;19.54;54.75
45071;BME280;30836;48.906;9.140;2023-05-10T02:04:51;980.47;;;19.62;54.68
45071;BME280;30836;48.906;9.140;2023-05-10T02:05:54;980.55;;;19.59;55.06
45071;BME280;30836;48.906;9.140;2023-05-10T02:06:56;980.51;;;19.48;55.33
45071;BME280;30836;48.906;9.140;2023-05-10T02:07:57;980.53;;;19.45;55.28
45071;BME280;30836;48.906;9.140;2023-05-10T02:09:01;980.55;;;19.39;55.77
45071;BME280;30836;48.906;9.140;2023-05-10T02:10:04;980.53;;;19.32;55.74
45071;BME280;30836;48.906;9.140;2023-05-10T02:11:06;980.53;;;19.35;55.39
45071;BME280;30836;48.906;9.140;2023-05-10T02:12:08;980.55;;;19.44;55.11
45071;BME280;30836;48.906;9.140;2023-05-10T02:13:09;980.53;;;19.53;55.03
45071;BME280;30836;48.906;9.140;2023-05-10T02:14:11;980.51;;;19.60;54.97
45071;BME280;30836;48.906;9.140;2023-05-10T02:15:12;980.53;;;19.66;54.77
45071;BME280;30836;48.906;9.140;2023-05-10T02:16:17;980.55;;;19.68;55.04
45071;BME280;30836;48.906;9.140;2023-05-10T02:17:23;980.57;;;19.61;55.26
45071;BME280;30836;48.906;9.140;2023-05-10T02:18:25;980.57;;;19.59;55.18
45071;BME280;30836;48.906;9.140;2023-05-10T02:19:27;980.55;;;19.60;54.92
45071;BME280;30836;48.906;9.140;2023-05-10T02:20:29;980.53;;;19.60;54.96
45071;BME280;30836;48.906;9.140;2023-05-10T02:21:32;980.53;;;19.60;54.90
45071;BME280;30836;48.906;9.140;2023-05-10T02:22:33;980.53;;;19.62;54.83
45071;BME280;30836;48.906;9.140;2023-05-10T02:23:35;980.53;;;19.73;54.24
45071;BME280;30836;48.906;9.140;2023-05-10T02:24:37;980.53;;;19.83;54.17
45071;BME280;30836;48.906;9.140;2023-05-10T02:25:39;980.59;;;19.90;53.98
45071;BME280;30836;48.906;9.140;2023-05-10T02:26:42;980.55;;;19.96;53.93
45071;BME280;30836;48.906;9.140;2023-05-10T02:27:45;980.59;;;19.91;54.26
45071;BME280;30836;48.906;9.140;2023-05-10T02:28:47;980.55;;;19.80;54.51
45071;BME280;30836;48.906;9.140;2023-05-10T02:29:49;980.55;;;19.76;54.34
45071;BME280;30836;48.906;9.140;2023-05-10T02:30:51;980.55;;;19.75;54.32
45071;BME280;30836;48.906;9.140;2023-05-10T02:31:54;980.63;;;19.79;54.11
45071;BME280;30836;48.906;9.140;2023-05-10T02:32:55;980.65;;;19.85;54.06
45071;BME280;30836;48.906;9.140;2023-05-10T02:33:56;980.67;;;19.85;54.23
45071;BME280;30836;48.906;9.140;2023-05-10T02:34:58;980.67;;;19.81;54.26
45071;BME280;30836;48.906;9.140;2023-05-10T02:36:02;980.67;;;19.81;54.19
45071;BME280;30836;48.906;9.140;2023-05-10T02:36:13;980.71;;;19.76;54.18
45071;BME280;30836;48.906;9.140;2023-05-10T02:37:15;980.75;;;19.74;54.38
45071;BME280;30836;48.906;9.140;2023-05-10T02:38:16;980.71;;;19.67;54.77
45071;BME280;30836;48.906;9.140;2023-05-10T02:39:20;980.73;;;19.57;55.18
45071;BME280;30836;48.906;9.140;2023-05-10T02:40:21;980.73;;;19.46;55.29
45071;BME280;30836;48.906;9.140;2023-05-10T02:41:23;980.77;;;19.34;55.74
45071;BME280;30836;48.906;9.140;2023-05-10T02:42:26;980.77;;;19.21;56.00
45071;BME280;30836;48.906;9.140;2023-05-10T02:43:27;980.77;;;19.12;56.19
45071;BME280;30836;48.906;9.140;2023-05-10T02:44:31;980.79;;;19.07;56.04
45071;BME280;30836;48.906;9.140;2023-05-10T02:45:34;980.80;;;19.09;55.83
45071;BME280;30836;48.906;9.140;2023-05-10T02:46:36;980.79;;;19.21;55.40
45071;BME280;30836;48.906;9.140;2023-05-10T02:47:37;980.80;;;19.35;55.09
45071;BME280;30836;48.906;9.140;2023-05-10T02:48:37;980.79;;;19.47;54.77
45071;BME280;30836;48.906;9.140;2023-05-10T02:49:38;980.79;;;19.61;54.41
45071;BME280;30836;48.906;9.140;2023-05-10T02:50:38;980.77;;;19.70;54.33
45071;BME280;30836;48.906;9.140;2023-05-10T02:51:47;980.80;;;19.73;54.29
45071;BME280;30836;48.906;9.140;2023-05-10T02:52:51;980.80;;;19.74;54.21
45071;BME280;30836;48.906;9.140;2023-05-10T02:53:54;980.80;;;19.78;53.99
45071;BME280;30836;48.906;9.140;2023-05-10T02:54:58;980.80;;;19.84;53.93
45071;BME280;30836;48.906;9.140;2023-05-10T02:56:04;980.82;;;19.90;53.77
45071;BME280;30836;48.906;9.140;2023-05-10T02:57:10;980.82;;;19.96;53.71
45071;BME280;30836;48.906;9.140;2023-05-10T02:58:15;980.84;;;20.03;53.32
45071;BME280;30836;48.906;9.140;2023-05-10T02:59:15;980.82;;;20.12;53.20
45071;BME280;30836;48.906;9.140;2023-05-10T03:00:16;980.84;;;20.20;53.17
45071;BME280;30836;48.906;9.140;2023-05-10T03:01:17;980.82;;;20.26;52.88
45071;BME280;30836;48.906;9.140;2023-05-10T03:02:17;980.82;;;20.35;52.58
45071;BME280;30836;48.906;9.140;2023-05-10T03:03:18;980.82;;;20.43;52.62
45071;BME280;30836;48.906;9.140;2023-05-10T03:04:19;980.84;;;20.46;52.50
45071;BME280;30836;48.906;9.140;2023-05-10T03:05:20;980.86;;;20.47;52.33
45071;BME280;30836;48.906;9.140;2023-05-10T03:06:21;980.86;;;20.51;52.33
45071;BME280;30836;48.906;9.140;2023-05-10T03:07:21;980.84;;;20.55;52.25
45071;BME280;30836;48.906;9.140;2023-05-10T03:08:22;980.84;;;20.60;52.13
45071;BME280;30836;48.906;9.140;2023-05-10T03:09:23;980.84;;;20.70;51.92
45071;BME280;30836;48.906;9.140;2023-05-10T03:10:26;980.84;;;20.77;51.86
45071;BME280;30836;48.906;9.140;2023-05-10T03:16:06;980.88;;;20.71;51.96
45071;BME280;30836;48.906;9.140;2023-05-10T03:18:21;980.90;;;20.67;51.89
45071;BME280;30836;48.906;9.140;2023-05-10T03:19:32;980.92;;;20.69;51.96
45071;BME280;30836;48.906;9.140;2023-05-10T03:20:35;980.92;;;20.69;52.06
45071;BME280;30836;48.906;9.140;2023-05-10T03:21:39;980.96;;;20.68;52.02
45071;BME280;30836;48.906;9.140;2023-05-10T03:22:45;980.96;;;20.69;51.90
45071;BME280;30836;48.906;9.140;2023-05-10T03:25:00;980.96;;;20.79;51.62
45071;BME280;30836;48.906;9.140;2023-05-10T03:26:05;981.02;;;20.81;51.72
45071;BME280;30836;48.906;9.140;2023-05-10T03:27:07;981.02;;;20.80;51.73
45071;BME280;30836;48.906;9.140;2023-05-10T03:28:08;981.06;;;20.78;51.85
45071;BME280;30836;48.906;9.140;2023-05-10T03:29:09;981.02;;;20.72;51.90
45071;BME280;30836;48.906;9.140;2023-05-10T03:30:11;981.06;;;20.71;51.78
45071;BME280;30836;48.906;9.140;2023-05-10T03:31:13;981.04;;;20.76;51.71
45071;BME280;30836;48.906;9.140;2023-05-10T03:32:14;981.00;;;20.78;51.54
45071;BME280;30836;48.906;9.140;2023-05-10T03:33:15;981.02;;;20.79;51.65
45071;BME280;30836;48.906;9.140;2023-05-10T03:34:15;981.02;;;20.79;51.59
45071;BME280;30836;48.906;9.140;2023-05-10T03:35:16;981.02;;;20.78;51.59
45071;BME280;30836;48.906;9.140;2023-05-10T03:36:16;981.04;;;20.80;51.55
45071;BME280;30836;48.906;9.140;2023-05-10T03:37:17;981.02;;;20.81;51.47
45071;BME280;30836;48.906;9.140;2023-05-10T03:38:18;981.00;;;20.83;51.41
45071;BME280;30836;48.906;9.140;2023-05-10T03:39:18;981.02;;;20.85;51.39
45071;BME280;30836;48.906;9.140;2023-05-10T03:40:19;980.98;;;20.89;51.32
45071;BME280;30836;48.906;9.140;2023-05-10T03:41:19;980.98;;;20.95;51.23
45071;BME280;30836;48.906;9.140;2023-05-10T03:42:19;981.00;;;21.01;51.09
45071;BME280;30836;48.906;9.140;2023-05-10T03:43:20;980.98;;;21.07;50.96
45071;BME280;30836;48.906;9.140;2023-05-10T03:44:20;981.00;;;21.08;51.04
45071;BME280;30836;48.906;9.140;2023-05-10T03:45:21;981.00;;;21.05;51.04
45071;BME280;30836;48.906;9.140;2023-05-10T03:46:21;981.02;;;21.02;50.99
45071;BME280;30836;48.906;9.140;2023-05-10T03:47:22;981.04;;;20.96;51.42
45071;BME280;30836;48.906;9.140;2023-05-10T03:48:22;981.02;;;20.90;51.31
45071;BME280;30836;48.906;9.140;2023-05-10T03:49:22;981.00;;;20.93;51.14
45071;BME280;30836;48.906;9.140;2023-05-10T03:50:23;980.98;;;21.01;50.89
45071;BME280;30836;48.906;9.140;2023-05-10T03:51:23;981.00;;;21.09;50.73
45071;BME280;30836;48.906;9.140;2023-05-10T03:52:24;980.98;;;21.16;50.63
45071;BME280;30836;48.906;9.140;2023-05-10T03:53:24;980.98;;;21.21;50.51
45071;BME280;30836;48.906;9.140;2023-05-10T03:53:34;980.98;;;21.27;50.50
45071;BME280;30836;48.906;9.140;2023-05-10T03:54:35;980.98;;;21.27;50.53
45071;BME280;30836;48.906;9.140;2023-05-10T03:55:35;980.98;;;21.17;50.89
45071;BME280;30836;48.906;9.140;2023-05-10T03:56:36;980.98;;;20.99;51.40
45071;BME280;30836;48.906;9.140;2023-05-10T03:57:36;981.00;;;20.86;51.58
45071;BME280;30836;48.906;9.140;2023-05-10T03:58:37;981.04;;;20.73;52.08
45071;BME280;30836;48.906;9.140;2023-05-10T03:59:37;981.06;;;20.53;52.70
45071;BME280;30836;48.906;9.140;2023-05-10T04:00:37;981.08;;;20.36;52.73
45071;BME280;30836;48.906;9.140;2023-05-10T04:01:38;981.04;;;20.25;53.09
45071;BME280;30836;48.906;9.140;2023-05-10T04:02:38;981.06;;;20.12;53.45
45071;BME280;30836;48.906;9.140;2023-05-10T04:03:39;981.04;;;20.04;53.55
45071;BME280;30836;48.906;9.140;2023-05-10T04:04:39;981.04;;;19.95;53.79
45071;BME280;30836;48.906;9.140;2023-05-10T04:05:40;981.06;;;19.85;54.00
45071;BME280;30836;48.906;9.140;2023-05-10T04:06:40;981.06;;;19.77;54.24
45071;BME280;30836;48.906;9.140;2023-05-10T04:07:41;981.06;;;19.73;54.23
45071;BME280;30836;48.906;9.140;2023-05-10T04:08:41;981.04;;;19.73;54.26
45071;BME280;30836;48.906;9.140;2023-05-10T04:09:42;981.06;;;19.71;54.27
45071;BME280;30836;48.906;9.140;2023-05-10T04:10:42;981.06;;;19.62;54.37
45071;BME280;30836;48.906;9.140;2023-05-10T04:11:43;981.04;;;19.48;54.62
45071;BME280;30836;48.906;9.140;2023-05-10T04:12:43;981.06;;;19.41;54.75
45071;BME280;30836;48.906;9.140;2023-05-10T04:13:43;981.00;;;19.35;54.97
45071;BME280;30836;48.906;9.140;2023-05-10T04:14:44;981.04;;;19.28;55.08
45071;BME280;30836;48.906;9.140;2023-05-10T04:15:44;981.04;;;19.24;54.92
45071;BME280;30836;48.906;9.140;2023-05-10T04:16:45;981.02;;;19.27;54.79
45071;BME280;30836;48.906;9.140;2023-05-10T04:17:45;981.06;;;19.27;54.87
45071;BME280;30836;48.906;9.140;2023-05-10T04:18:46;981.12;;;19.24;55.14
45071;BME280;30836;48.906;9.140;2023-05-10T04:19:46;981.10;;;19.22;55.05
45071;BME280;30836;48.906;9.140;2023-05-10T04:20:46;981.12;;;19.21;55.14
45071;BME280;30836;48.906;9.140;2023-05-10T04:21:47;981.16;;;19.17;55.17
45071;BME280;30836;48.906;9.140;2023-05-10T04:22:47;981.14;;;19.13;55.18
45071;BME280;30836;48.906;9.140;2023-05-10T04:23:48;981.16;;;19.10;55.31
45071;BME280;30836;48.906;9.140;2023-05-10T04:24:48;981.10;;;19.08;55.29
45071;BME280;30836;48.906;9.140;2023-05-10T04:25:49;981.14;;;19.06;55.25
45071;BME280;30836;48.906;9.140;2023-05-10T04:26:49;981.16;;;19.02;55.47
45071;BME280;30836;48.906;9.140;2023-05-10T04:27:50;981.14;;;18.96;55.54
45071;BME280;30836;48.906;9.140;2023-05-10T04:28:50;981.20;;;18.96;55.32
45071;BME280;30836;48.906;9.140;2023-05-10T04:29:50;981.20;;;18.95;55.52
45071;BME280;30836;48.906;9.140;2023-05-10T04:30:51;981.16;;;18.91;55.47
45071;BME280;30836;48.906;9.140;2023-05-10T04:31:51;981.18;;;18.90;55.73
45071;BME280;30836;48.906;9.140;2023-05-10T04:32:52;981.16;;;18.92;55.37
45071;BME280;30836;48.906;9.140;2023-05-10T04:33:52;981.22;;;18.95;55.58
45071;BME280;30836;48.906;9.140;2023-05-10T04:34:52;981.24;;;18.98;55.42
45071;BME280;30836;48.906;9.140;2023-05-10T04:35:53;981.24;;;19.01;55.43
45071;BME280;30836;48.906;9.140;2023-05-10T04:36:53;981.22;;;19.01;55.54
45071;BME280;30836;48.906;9.140;2023-05-10T04:37:54;981.26;;;19.06;55.32
45071;BME280;30836;48.906;9.140;2023-05-10T04:38:54;981.30;;;19.12;55.17
45071;BME280;30836;48.906;9.140;2023-05-10T04:39:55;981.24;;;19.15;55.13
45071;BME280;30836;48.906;9.140;2023-05-10T04:41:03;981.26;;;19.20;55.19
45071;BME280;30836;48.906;9.140;2023-05-10T04:42:04;981.28;;;19.22;54.92
45071;BME280;30836;48.906;9.140;2023-05-10T04:43:04;981.28;;;19.27;54.95
45071;BME280;30836;48.906;9.140;2023-05-10T04:44:05;981.28;;;19.32;54.72
45071;BME280;30836;48.906;9.140;2023-05-10T04:45:05;981.30;;;19.38;54.69
45071;BME280;30836;48.906;9.140;2023-05-10T04:46:06;981.28;;;19.40;54.58
45071;BME280;30836;48.906;9.140;2023-05-10T04:47:07;981.28;;;19.47;54.31
45071;BME280;30836;48.906;9.140;2023-05-10T04:48:07;981.30;;;19.55;54.08
45071;BME280;30836;48.906;9.140;2023-05-10T04:49:07;981.28;;;19.58;54.20
45071;BME280;30836;48.906;9.140;2023-05-10T04:50:08;981.31;;;19.61;53.94
45071;BME280;30836;48.906;9.140;2023-05-10T04:51:09;981.31;;;19.63;53.97
45071;BME280;30836;48.906;9.140;2023-05-10T04:52:09;981.30;;;19.62;53.98
45071;BME280;30836;48.906;9.140;2023-05-10T04:53:09;981.31;;;19.62;54.13
45071;BME280;30836;48.906;9.140;2023-05-10T04:54:10;981.33;;;19.63;54.02
45071;BME280;30836;48.906;9.140;2023-05-10T04:55:10;981.33;;;19.67;53.96
45071;BME280;30836;48.906;9.140;2023-05-10T04:56:11;981.35;;;19.71;53.74
45071;BME280;30836;48.906;9.140;2023-05-10T04:57:11;981.39;;;19.76;53.69
45071;BME280;30836;48.906;9.140;2023-05-10T04:58:12;981.41;;;19.78;53.67
45071;BME280;30836;48.906;9.140;2023-05-10T04:59:12;981.39;;;19.82;53.57
45071;BME280;30836;48.906;9.140;2023-05-10T05:00:13;981.41;;;19.90;53.34
45071;BME280;30836;48.906;9.140;2023-05-10T05:01:14;981.43;;;19.94;53.38
45071;BME280;30836;48.906;9.140;2023-05-10T05:02:14;981.41;;;19.94;53.35
45071;BME280;30836;48.906;9.140;2023-05-10T05:03:15;981.43;;;19.99;53.14
45071;BME280;30836;48.906;9.140;2023-05-10T05:04:15;981.41;;;20.03;52.98
45071;BME280;30836;48.906;9.140;2023-05-10T05:05:15;981.43;;;20.03;53.18
45071;BME280;30836;48.906;9.140;2023-05-10T05:06:16;981.45;;;19.98;53.38
45071;BME280;30836;48.906;9.140;2023-05-10T05:07:16;981.45;;;19.90;53.28
45071;BME280;30836;48.906;9.140;2023-05-10T05:08:17;981.45;;;19.84;53.41
45071;BME280;30836;48.906;9.140;2023-05-10T05:09:17;981.49;;;19.81;53.55
45071;BME280;30836;48.906;9.140;2023-05-10T05:10:17;981.47;;;19.80;53.41
45071;BME280;30836;48.906;9.140;2023-05-10T05:11:18;981.47;;;19.84;53.36
45071;BME280;30836;48.906;9.140;2023-05-10T05:12:18;981.47;;;19.91;53.26
45071;BME280;30836;48.906;9.140;2023-05-10T05:13:19;981.49;;;19.98;53.17
45071;BME280;30836;48.906;9.140;2023-05-10T05:14:19;981.49;;;20.03;53.09
45071;BME280;30836;48.906;9.140;2023-05-10T05:15:20;981.49;;;20.08;53.11
45071;BME280;30836;48.906;9.140;2023-05-10T05:16:20;981.53;;;20.14;52.99
45071;BME280;30836;48.906;9.140;2023-05-10T05:17:20;981.53;;;20.21;52.80
45071;BME280;30836;48.906;9.140;2023-05-10T05:18:21;981.51;;;20.27;52.75
45071;BME280;30836;48.906;9.140;2023-05-10T05:19:21;981.53;;;20.31;52.70
45071;BME280;30836;48.906;9.140;2023-05-10T05:20:22;981.53;;;20.35;52.53
45071;BME280;30836;48.906;9.140;2023-05-10T05:21:22;981.55;;;20.40;52.59
45071;BME280;30836;48.906;9.140;2023-05-10T05:22:23;981.57;;;20.41;52.54
45071;BME280;30836;48.906;9.140;2023-05-10T05:23:23;981.61;;;20.43;52.42
45071;BME280;30836;48.906;9.140;2023-05-10T05:24:23;981.63;;;20.48;52.26
45071;BME280;30836;48.906;9.140;2023-05-10T05:25:24;981.63;;;20.53;52.20
45071;BME280;30836;48.906;9.140;2023-05-10T05:26:24;981.65;;;20.54;52.09
45071;BME280;30836;48.906;9.140;2023-05-10T05:27:26;981.65;;;20.55;52.14
45071;BME280;30836;48.906;9.140;2023-05-10T05:28:26;981.65;;;20.60;51.85
45071;BME280;30836;48.906;9.140;2023-05-10T05:29:27;981.65;;;20.67;51.75
45071;BME280;30836;48.906;9.140;2023-05-10T05:30:27;981.69;;;20.72;51.65
45071;BME280;30836;48.906;9.140;2023-05-10T05:31:28;981.65;;;20.79;51.53
45071;BME280;30836;48.906;9.140;2023-05-10T05:32:28;981.67;;;20.88;51.28
45071;BME280;30836;48.906;9.140;2023-05-10T05:33:29;981.67;;;20.93;50.99
45071;BME280;30836;48.906;9.140;2023-05-10T05:34:29;981.69;;;20.95;51.10
45071;BME280;30836;48.906;9.140;2023-05-10T05:35:30;981.69;;;20.95;51.10
45071;BME280;30836;48.906;9.140;2023-05-10T05:36:30;981.69;;;20.95;51.08
45071;BME280;30836;48.906;9.140;2023-05-10T05:37:31;981.69;;;20.93;51.09
45071;BME280;30836;48.906;9.140;2023-05-10T05:38:31;981.67;;;20.96;50.91
45071;BME280;30836;48.906;9.140;2023-05-10T05:39:31;981.67;;;21.05;50.68
45071;BME280;30836;48.906;9.140;2023-05-10T05:40:32;981.71;;;21.12;50.79
45071;BME280;30836;48.906;9.140;2023-05-10T05:41:32;981.65;;;21.13;50.81
45071;BME280;30836;48.906;9.140;2023-05-10T05:42:33;981.65;;;21.12;50.87
45071;BME280;30836;48.906;9.140;2023-05-10T05:43:33;981.71;;;21.14;50.63
45071;BME280;30836;48.906;9.140;2023-05-10T05:44:34;981.69;;;21.18;50.42
45071;BME280;30836;48.906;9.140;2023-05-10T05:45:34;981.67;;;21.23;50.40
45071;BME280;30836;48.906;9.140;2023-05-10T05:46:35;981.71;;;21.27;50.33
45071;BME280;30836;48.906;9.140;2023-05-10T05:47:35;981.69;;;21.31;50.31
45071;BME280;30836;48.906;9.140;2023-05-10T05:48:36;981.69;;;21.33;50.36
45071;BME280;30836;48.906;9.140;2023-05-10T05:48:46;981.67;;;21.34;50.34
45071;BME280;30836;48.906;9.140;2023-05-10T05:49:46;981.67;;;21.34;50.41
45071;BME280;30836;48.906;9.140;2023-05-10T05:50:46;981.69;;;21.31;50.60
45071;BME280;30836;48.906;9.140;2023-05-10T05:51:47;981.71;;;21.22;51.00
45071;BME280;30836;48.906;9.140;2023-05-10T05:52:47;981.71;;;21.09;51.24
45071;BME280;30836;48.906;9.140;2023-05-10T05:53:48;981.69;;;20.92;51.54
45071;BME280;30836;48.906;9.140;2023-05-10T05:54:48;981.73;;;20.77;51.93
45071;BME280;30836;48.906;9.140;2023-05-10T05:55:55;981.73;;;20.62;52.00
45071;BME280;30836;48.906;9.140;2023-05-10T05:56:57;981.73;;;20.48;52.46